Time;durP1;ratioP1;P1;durP2;ratioP2;P2;SDS_P1;SDS_P2;PMS_P1;PMS_P2;Temp;Humidity;BMP_temperature;BMP_pressure;BME280_temperature;BME280_humidity;BME280_pressure;Samples;Min_cycle;Max_cycle;Signal;HPM_P1;HPM_P2
2023/02/27 00:01:45;;;;;;;3.92;1.92;;;;;;;;;;5125893;27;20042;-45
2023/02/27 00:04:11;;;;;;;2.75;1.48;;;;;;;;;;5126649;27;20027;-45
2023/02/27 00:06:37;;;;;;;2.10;1.58;;;;;;;;;;5126637;27;20042;-46
2023/02/27 00:09:03;;;;;;;2.20;1.88;;;;;;;;;;5112116;27;20039;-45
2023/02/27 00:11:29;;;;;;;3.53;1.92;;;;;;;;;;5105644;28;20102;-45
2023/02/27 00:13:55;;;;;;;3.13;1.70;;;;;;;;;;5105655;28;20409;-45
2023/02/27 00:16:21;;;;;;;3.17;1.75;;;;;;;;;;5105326;28;20517;-46
2023/02/27 00:18:47;;;;;;;3.95;2.00;;;;;;;;;;5105794;28;20028;-46
2023/02/27 00:21:13;;;;;;;3.75;2.10;;;;;;;;;;5105621;28;20023;-48
2023/02/27 00:23:40;;;;;;;4.05;1.80;;;;;;;;;;5105577;28;20024;-45
2023/02/27 00:26:06;;;;;;;3.20;1.77;;;;;;;;;;5105323;28;20030;-46
2023/02/27 00:28:32;;;;;;;2.45;1.58;;;;;;;;;;5103951;28;20034;-45
2023/02/27 00:30:58;;;;;;;3.78;2.03;;;;;;;;;;5105307;28;20023;-45
2023/02/27 00:33:25;;;;;;;2.50;1.50;;;;;;;;;;5104968;28;20031;-45
2023/02/27 00:35:58;;;;;;;2.75;1.50;;;;;;;;;;5104946;28;20031;-46
2023/02/27 00:38:24;;;;;;;4.30;2.10;;;;;;;;;;5104810;28;20398;-46
2023/02/27 00:40:50;;;;;;;3.22;1.70;;;;;;;;;;5103872;28;20034;-47
2023/02/27 00:43:16;;;;;;;3.33;1.77;;;;;;;;;;5105015;28;20398;-46
2023/02/27 00:45:42;;;;;;;2.97;1.60;;;;;;;;;;5105832;28;20098;-46
2023/02/27 00:48:08;;;;;;;2.55;1.50;;;;;;;;;;5105004;28;20449;-46
2023/02/27 00:50:34;;;;;;;2.92;1.90;;;;;;;;;;5104615;28;20072;-46
2023/02/27 00:53:00;;;;;;;2.30;1.48;;;;;;;;;;5105050;28;20113;-46
2023/02/27 00:55:26;;;;;;;3.22;1.60;;;;;;;;;;5104882;28;20209;-46
2023/02/27 00:57:52;;;;;;;3.40;1.75;;;;;;;;;;5103402;28;20058;-45
2023/02/27 01:00:18;;;;;;;2.97;1.83;;;;;;;;;;5104317;28;20498;-45
2023/02/27 01:02:45;;;;;;;3.17;1.65;;;;;;;;;;5105359;28;20383;-44
2023/02/27 06:11:47;;;;;;;3.47;1.83;;;;;;;;;;5108013;27;20386;-44
2023/02/27 06:14:13;;;;;;;3.47;1.73;;;;;;;;;;5110027;28;20167;-45
2023/02/27 06:16:39;;;;;;;2.53;1.80;;;;;;;;;;5110912;28;20043;-45
2023/02/27 06:19:06;;;;;;;4.18;2.58;;;;;;;;;;5110705;28;20031;-46
2023/02/27 06:21:32;;;;;;;3.45;2.13;;;;;;;;;;5110141;28;20076;-45
2023/02/27 06:23:58;;;;;;;2.55;1.40;;;;;;;;;;5110868;28;20028;-46
2023/02/27 06:26:24;;;;;;;2.35;1.30;;;;;;;;;;5110583;28;20034;-47
2023/02/27 06:28:50;;;;;;;2.20;1.30;;;;;;;;;;5110811;28;20023;-46
2023/02/27 06:31:17;;;;;;;1.92;1.23;;;;;;;;;;5110679;28;20059;-48
2023/02/27 06:33:44;;;;;;;2.33;1.52;;;;;;;;;;5110733;28;20032;-48
2023/02/27 06:36:11;;;;;;;2.50;1.38;;;;;;;;;;5110157;28;21499;-45
2023/02/27 06:38:37;;;;;;;2.40;1.48;;;;;;;;;;5110570;28;20096;-45
2023/02/27 06:41:03;;;;;;;2.13;1.20;;;;;;;;;;5110376;28;20047;-45
2023/02/27 06:43:33;;;;;;;1.25;1.10;;;;;;;;;;5110673;28;20387;-45
2023/02/27 06:45:59;;;;;;;2.10;1.05;;;;;;;;;;5110106;28;20380;-45
2023/02/27 06:48:25;;;;;;;2.63;1.10;;;;;;;;;;5110412;28;20027;-49
2023/02/27 06:50:53;;;;;;;1.27;1.00;;;;;;;;;;5110059;28;20166;-45
2023/02/27 06:53:19;;;;;;;1.25;0.98;;;;;;;;;;5110382;28;20456;-45
2023/02/27 06:55:45;;;;;;;1.35;1.25;;;;;;;;;;5110307;28;20095;-45
2023/02/27 06:58:11;;;;;;;1.17;1.05;;;;;;;;;;5109789;28;20023;-45
2023/02/27 07:00:37;;;;;;;2.70;1.08;;;;;;;;;;5109917;28;20035;-46
2023/02/27 07:03:04;;;;;;;2.95;1.60;;;;;;;;;;5111163;27;20023;-45
2023/02/27 07:05:30;;;;;;;3.97;1.80;;;;;;;;;;5130483;27;20072;-45
2023/02/27 07:07:57;;;;;;;3.75;1.80;;;;;;;;;;5130444;27;20088;-48
2023/02/27 07:10:24;;;;;;;4.63;2.05;;;;;;;;;;5129426;27;20084;-46
2023/02/27 07:12:50;;;;;;;6.32;2.47;;;;;;;;;;5127105;27;20076;-45
2023/02/27 07:15:16;;;;;;;6.75;2.90;;;;;;;;;;5110578;28;20035;-47
2023/02/27 07:17:42;;;;;;;10.00;3.60;;;;;;;;;;5110971;28;20502;-46
2023/02/27 07:20:10;;;;;;;6.85;3.00;;;;;;;;;;5098932;28;20514;-47
2023/02/27 07:22:37;;;;;;;5.70;2.40;;;;;;;;;;5110985;28;20107;-45
2023/02/27 07:25:04;;;;;;;5.00;2.50;;;;;;;;;;5110901;28;20076;-46
2023/02/27 07:27:31;;;;;;;5.50;2.30;;;;;;;;;;5110990;28;20099;-45
2023/02/27 07:29:57;;;;;;;4.57;2.03;;;;;;;;;;5110833;28;20041;-45
2023/02/27 07:32:23;;;;;;;3.22;1.67;;;;;;;;;;5100375;28;20694;-46
2023/02/27 07:34:49;;;;;;;2.90;1.58;;;;;;;;;;5110486;28;20035;-47
2023/02/27 07:37:15;;;;;;;3.50;1.67;;;;;;;;;;5110545;28;20031;-45
2023/02/27 07:39:41;;;;;;;3.03;1.67;;;;;;;;;;5110458;28;20395;-46
2023/02/27 07:42:07;;;;;;;4.88;2.20;;;;;;;;;;5109710;28;20035;-49
2023/02/27 07:44:33;;;;;;;5.28;2.42;;;;;;;;;;5109736;28;20028;-45
2023/02/27 07:46:59;;;;;;;3.00;2.00;;;;;;;;;;5108913;28;20065;-45
2023/02/27 07:49:25;;;;;;;3.22;1.80;;;;;;;;;;5108956;28;20506;-46
2023/02/27 07:51:51;;;;;;;3.53;2.05;;;;;;;;;;5109977;28;20035;-48
2023/02/27 07:54:18;;;;;;;2.17;1.80;;;;;;;;;;5109996;28;20102;-46
2023/02/27 07:56:44;;;;;;;2.20;1.35;;;;;;;;;;5110582;28;20055;-45
2023/02/27 07:59:10;;;;;;;2.15;1.35;;;;;;;;;;5108020;28;20031;-45
2023/02/27 08:01:36;;;;;;;3.25;1.80;;;;;;;;;;5107945;28;20023;-47
2023/02/27 08:04:02;;;;;;;3.42;1.75;;;;;;;;;;5103551;28;20024;-46
2023/02/27 08:06:28;;;;;;;2.60;1.45;;;;;;;;;;5109604;28;20028;-46
2023/02/27 08:08:54;;;;;;;2.72;1.58;;;;;;;;;;5108443;28;20031;-45
2023/02/27 08:11:21;;;;;;;3.55;1.80;;;;;;;;;;5109678;28;20069;-45
2023/02/27 08:13:48;;;;;;;4.15;1.70;;;;;;;;;;5101846;28;20031;-48
2023/02/27 08:16:14;;;;;;;4.03;2.00;;;;;;;;;;5103239;28;20034;-45
2023/02/27 08:18:40;;;;;;;3.22;1.70;;;;;;;;;;5099911;28;20035;-45
2023/02/27 08:21:06;;;;;;;3.65;1.90;;;;;;;;;;5107847;28;20018;-46
2023/02/27 08:23:33;;;;;;;3.50;2.03;;;;;;;;;;5095335;28;20425;-49
2023/02/27 08:26:00;;;;;;;4.57;2.25;;;;;;;;;;5107928;28;20070;-47
2023/02/27 08:28:26;;;;;;;8.15;3.30;;;;;;;;;;5108944;28;20027;-46
2023/02/27 08:30:53;;;;;;;9.65;4.50;;;;;;;;;;5109057;28;20077;-45
2023/02/27 08:33:20;;;;;;;10.48;4.78;;;;;;;;;;5109373;28;20138;-49
2023/02/27 08:35:46;;;;;;;8.65;4.43;;;;;;;;;;5106984;28;20846;-46
2023/02/27 08:38:12;;;;;;;7.43;3.92;;;;;;;;;;5090409;28;20468;-46
2023/02/27 08:40:38;;;;;;;8.85;4.05;;;;;;;;;;5108800;28;20051;-47
2023/02/27 08:43:04;;;;;;;9.50;4.63;;;;;;;;;;5108289;28;20057;-50
2023/02/27 08:45:30;;;;;;;10.90;4.78;;;;;;;;;;5108287;28;20114;-46
2023/02/27 08:47:56;;;;;;;7.80;3.50;;;;;;;;;;5108157;28;20543;-48
2023/02/27 08:50:23;;;;;;;7.35;3.38;;;;;;;;;;5107379;28;20027;-46
2023/02/27 08:52:49;;;;;;;6.55;3.05;;;;;;;;;;5107844;28;20110;-47
2023/02/27 08:55:15;;;;;;;6.57;2.97;;;;;;;;;;5107984;28;20418;-48
2023/02/27 08:57:41;;;;;;;6.13;2.80;;;;;;;;;;5106897;28;20034;-49
2023/02/27 09:00:08;;;;;;;8.90;3.75;;;;;;;;;;5106958;28;20027;-47
2023/02/27 09:02:34;;;;;;;8.68;3.65;;;;;;;;;;5106870;28;20451;-46
2023/02/27 09:05:01;;;;;;;7.20;3.15;;;;;;;;;;5107137;28;20032;-47
2023/02/27 09:07:26;;;;;;;6.88;3.58;;;;;;;;;;5107194;28;20051;-48
2023/02/27 09:09:53;;;;;;;6.05;3.47;;;;;;;;;;5107225;28;20527;-47
2023/02/27 09:12:19;;;;;;;7.60;3.67;;;;;;;;;;5107800;28;20019;-48
2023/02/27 09:14:44;;;;;;;7.43;3.50;;;;;;;;;;5120774;27;20499;-49
2023/02/27 09:17:11;;;;;;;4.82;2.80;;;;;;;;;;5122769;27;20031;-49
2023/02/27 09:19:37;;;;;;;6.25;3.33;;;;;;;;;;5127789;27;20029;-47
2023/02/27 09:22:04;;;;;;;6.07;3.17;;;;;;;;;;5127410;27;20027;-46
2023/02/27 09:24:31;;;;;;;9.43;4.45;;;;;;;;;;5127021;27;20066;-47
2023/02/27 09:26:57;;;;;;;10.57;5.38;;;;;;;;;;5127444;27;20079;-48
2023/02/27 09:29:26;;;;;;;11.20;5.18;;;;;;;;;;5127055;27;20039;-49
2023/02/27 09:31:53;;;;;;;11.45;5.65;;;;;;;;;;5126279;28;20038;-48
2023/02/27 09:34:19;;;;;;;11.20;5.55;;;;;;;;;;5126228;28;20038;-46
2023/02/27 09:36:45;;;;;;;11.93;5.55;;;;;;;;;;5127515;28;20438;-48
2023/02/27 09:39:11;;;;;;;9.35;5.13;;;;;;;;;;5127370;28;20020;-45
2023/02/27 09:41:39;;;;;;;8.20;4.35;;;;;;;;;;5128505;27;20071;-45
2023/02/27 09:44:12;;;;;;;7.32;3.90;;;;;;;;;;5108742;28;20401;-45
2023/02/27 09:46:39;;;;;;;5.05;2.78;;;;;;;;;;5127224;28;20390;-47
2023/02/27 09:49:12;;;;;;;3.78;2.50;;;;;;;;;;5127240;27;20107;-46
2023/02/27 09:51:39;;;;;;;4.43;2.35;;;;;;;;;;5126555;27;20023;-46
2023/02/27 09:54:06;;;;;;;4.13;2.38;;;;;;;;;;5126972;28;20031;-46
2023/02/27 09:56:34;;;;;;;3.53;2.15;;;;;;;;;;5126699;27;20058;-47
2023/02/27 09:59:00;;;;;;;3.58;2.05;;;;;;;;;;5126539;27;20023;-46
2023/02/27 10:01:34;;;;;;;2.42;1.48;;;;;;;;;;5126377;27;20489;-48
2023/02/27 10:04:08;;;;;;;2.20;1.48;;;;;;;;;;5126054;28;20019;-47
2023/02/27 10:06:37;;;;;;;2.03;1.40;;;;;;;;;;5127145;27;20446;-49
2023/02/27 10:09:18;;;;;;;2.45;1.60;;;;;;;;;;5126648;28;20030;-48
2023/02/27 10:11:47;;;;;;;3.70;2.53;;;;;;;;;;5126199;27;20027;-48
2023/02/27 10:14:14;;;;;;;2.83;1.88;;;;;;;;;;5111590;28;20122;-46
2023/02/27 10:16:42;;;;;;;3.10;2.13;;;;;;;;;;5099601;28;20532;-47
2023/02/27 10:19:14;;;;;;;2.90;1.98;;;;;;;;;;5085713;28;20020;-49
2023/02/27 10:21:43;;;;;;;4.40;2.58;;;;;;;;;;5105406;28;20028;-47
2023/02/27 10:24:15;;;;;;;2.25;1.80;;;;;;;;;;5106097;28;20039;-49
2023/02/27 10:26:43;;;;;;;3.15;2.22;;;;;;;;;;5106436;28;20040;-47
2023/02/27 10:29:28;;;;;;;3.15;2.03;;;;;;;;;;5105263;28;20042;-50
2023/02/27 10:31:54;;;;;;;;;;;;;;;;;;5106568;28;20027;-47
2023/02/27 10:34:21;;;;;;;2.58;2.03;;;;;;;;;;5106234;28;20409;-45
2023/02/27 10:36:47;;;;;;;2.55;1.55;;;;;;;;;;5106634;28;20055;-49
2023/02/27 10:39:15;;;;;;;2.65;1.70;;;;;;;;;;5110068;28;20043;-47
2023/02/27 10:41:43;;;;;;;2.63;1.70;;;;;;;;;;5108682;28;20422;-50
2023/02/27 10:44:10;;;;;;;1.90;1.40;;;;;;;;;;5110288;28;20107;-47
2023/02/27 10:46:37;;;;;;;2.40;1.50;;;;;;;;;;5110175;28;20391;-49
2023/02/27 10:49:10;;;;;;;1.60;1.27;;;;;;;;;;5109630;28;20023;-46
2023/02/27 10:51:36;;;;;;;2.53;1.67;;;;;;;;;;5109407;28;20031;-49
2023/02/27 10:54:22;;;;;;;2.22;1.40;;;;;;;;;;5110355;28;20563;-50
2023/02/27 10:56:51;;;;;;;2.92;2.00;;;;;;;;;;5108408;28;20036;-49
2023/02/27 10:59:18;;;;;;;2.83;2.17;;;;;;;;;;5109488;28;20023;-49
2023/02/27 11:01:54;;;;;;;4.15;2.30;;;;;;;;;;5109221;28;20012;-46
2023/02/27 11:04:24;;;;;;;2.00;1.63;;;;;;;;;;5109499;28;20384;-48
2023/02/27 11:06:51;;;;;;;1.65;1.50;;;;;;;;;;5109575;28;20065;-48
2023/02/27 11:09:21;;;;;;;1.85;1.42;;;;;;;;;;5107555;28;20023;-46
2023/02/27 11:11:47;;;;;;;2.83;1.77;;;;;;;;;;5108791;28;20059;-50
2023/02/27 11:14:19;;;;;;;2.15;1.95;;;;;;;;;;5123219;27;20115;-47
2023/02/27 11:16:45;;;;;;;2.10;1.75;;;;;;;;;;5123692;27;20497;-48
2023/02/27 11:19:23;;;;;;;1.33;1.20;;;;;;;;;;5128966;27;20104;-47
2023/02/27 11:22:03;;;;;;;1.13;1.02;;;;;;;;;;5127655;27;20419;-46
2023/02/27 11:24:29;;;;;;;2.05;1.30;;;;;;;;;;5130484;27;20627;-49
2023/02/27 11:26:58;;;;;;;1.42;0.95;;;;;;;;;;5129463;27;20024;-46
2023/02/27 11:29:25;;;;;;;1.48;1.08;;;;;;;;;;5141129;27;20355;-46
2023/02/27 11:31:53;;;;;;;1.85;1.38;;;;;;;;;;5129570;27;20034;-45
2023/02/27 11:34:21;;;;;;;1.95;1.25;;;;;;;;;;5130384;27;20034;-46
2023/02/27 11:36:48;;;;;;;1.95;1.30;;;;;;;;;;5129280;27;20035;-47
2023/02/27 11:39:25;;;;;;;1.63;1.27;;;;;;;;;;5129244;27;20077;-47
2023/02/27 11:41:52;;;;;;;1.33;1.10;;;;;;;;;;5128059;27;20072;-46
2023/02/27 11:44:21;;;;;;;1.98;1.23;;;;;;;;;;5128646;27;20059;-48
2023/02/27 11:46:47;;;;;;;2.08;1.30;;;;;;;;;;5128510;27;20110;-51
2023/02/27 11:49:26;;;;;;;2.20;1.45;;;;;;;;;;5128457;27;20082;-47
2023/02/27 11:51:52;;;;;;;1.63;1.33;;;;;;;;;;5129159;27;20027;-46
2023/02/27 11:54:24;;;;;;;2.28;1.95;;;;;;;;;;5129012;27;20500;-47
2023/02/27 11:56:54;;;;;;;2.72;1.77;;;;;;;;;;5128793;27;20031;-48
2023/02/27 11:59:23;;;;;;;3.08;2.00;;;;;;;;;;5128757;27;20420;-47
2023/02/27 12:01:59;;;;;;;1.90;1.55;;;;;;;;;;5128982;27;20019;-46
2023/02/27 12:04:25;;;;;;;2.60;1.55;;;;;;;;;;5128493;27;20054;-48
2023/02/27 12:06:55;;;;;;;2.47;1.58;;;;;;;;;;5128399;27;20027;-47
2023/02/27 12:09:30;;;;;;;1.88;1.40;;;;;;;;;;5127922;27;20023;-46
2023/02/27 12:11:56;;;;;;;2.78;2.03;;;;;;;;;;5128781;27;20031;-48
2023/02/27 12:14:31;;;;;;;2.50;1.75;;;;;;;;;;5112625;27;20111;-46
2023/02/27 12:17:09;;;;;;;2.28;1.50;;;;;;;;;;5114042;27;20039;-47
2023/02/27 12:19:38;;;;;;;4.05;2.20;;;;;;;;;;5108103;28;20088;-48
2023/02/27 12:22:06;;;;;;;5.35;2.28;;;;;;;;;;5106427;28;20023;-47
2023/02/27 12:24:44;;;;;;;3.08;2.40;;;;;;;;;;5108225;28;20031;-49
2023/02/27 12:27:20;;;;;;;4.40;2.42;;;;;;;;;;5106625;28;20024;-48
2023/02/27 12:29:53;;;;;;;3.88;2.35;;;;;;;;;;5108099;28;20023;-46
2023/02/27 12:32:27;;;;;;;2.03;1.67;;;;;;;;;;5108300;28;20030;-48
2023/02/27 12:35:00;;;;;;;3.97;2.10;;;;;;;;;;5108229;28;20059;-47
2023/02/27 12:37:28;;;;;;;2.38;1.42;;;;;;;;;;5107232;28;20034;-47
2023/02/27 12:39:55;;;;;;;2.78;1.92;;;;;;;;;;5103235;28;20035;-49
2023/02/27 12:42:35;;;;;;;3.38;1.73;;;;;;;;;;5087787;28;20036;-47
2023/02/27 12:45:01;;;;;;;2.85;2.00;;;;;;;;;;5087336;28;20028;-48
2023/02/27 12:47:39;;;;;;;3.50;2.17;;;;;;;;;;5105495;28;21633;-47
2023/02/27 12:50:10;;;;;;;3.97;2.53;;;;;;;;;;5107180;28;20432;-48
2023/02/27 12:52:42;;;;;;;3.88;2.42;;;;;;;;;;5097971;27;20028;-47
2023/02/27 12:55:17;;;;;;;5.45;3.03;;;;;;;;;;5099005;27;20056;-49
2023/02/27 12:57:57;;;;;;;4.63;2.88;;;;;;;;;;5102560;28;20041;-48
2023/02/27 13:00:29;;;;;;;4.53;2.50;;;;;;;;;;5093246;28;20024;-49
2023/02/27 13:03:04;;;;;;;6.95;4.15;;;;;;;;;;5103540;27;20027;-47
2023/02/27 13:05:34;;;;;;;6.50;4.00;;;;;;;;;;5106365;28;20020;-50
2023/02/27 13:08:13;;;;;;;6.78;3.75;;;;;;;;;;5105993;28;20402;-49
2023/02/27 13:10:39;;;;;;;4.65;2.83;;;;;;;;;;5104764;28;20036;-50
2023/02/27 13:13:05;;;;;;;5.47;3.30;;;;;;;;;;5088096;28;20528;-48
2023/02/27 13:15:39;;;;;;;3.83;2.58;;;;;;;;;;5101765;28;20235;-52
2023/02/27 13:18:05;;;;;;;;;;;;;;;;;;5119499;27;20513;-49
2023/02/27 13:20:39;;;;;;;3.25;2.10;;;;;;;;;;5125549;27;19923;-51
2023/02/27 13:23:18;;;;;;;2.47;1.85;;;;;;;;;;5125297;27;20019;-49
2023/02/27 13:25:49;;;;;;;2.97;1.73;;;;;;;;;;5125458;27;20038;-50
2023/02/27 13:28:17;;;;;;;3.65;2.38;;;;;;;;;;5126074;27;20021;-51
2023/02/27 13:30:46;;;;;;;3.88;2.50;;;;;;;;;;5120741;27;20038;-50
2023/02/27 13:33:25;;;;;;;3.67;2.60;;;;;;;;;;5125255;27;20382;-48
2023/02/27 13:35:51;;;;;;;5.93;2.67;;;;;;;;;;5125135;28;20024;-48
2023/02/27 13:38:36;;;;;;;3.90;2.30;;;;;;;;;;5124718;28;20410;-48
2023/02/27 13:41:20;;;;;;;2.90;2.20;;;;;;;;;;5124650;28;20459;-47
2023/02/27 13:43:47;;;;;;;3.17;2.50;;;;;;;;;;5125623;28;20043;-46
2023/02/27 13:46:28;;;;;;;3.03;1.95;;;;;;;;;;5122218;28;20240;-45
2023/02/27 13:48:55;;;;;;;3.00;2.35;;;;;;;;;;5112999;28;20115;-47
2023/02/27 13:51:48;;;;;;;6.07;3.45;;;;;;;;;;5124384;28;20393;-46
2023/02/27 13:54:17;;;;;;;7.15;4.10;;;;;;;;;;5112456;27;20032;-48
2023/02/27 13:56:45;;;;;;;6.28;3.45;;;;;;;;;;5125945;27;20038;-49
2023/02/27 13:59:31;;;;;;;7.43;4.30;;;;;;;;;;5126011;27;20038;-48
2023/02/27 14:02:00;;;;;;;6.43;3.65;;;;;;;;;;5117893;28;20011;-47
2023/02/27 14:04:30;;;;;;;4.32;3.08;;;;;;;;;;5126040;28;20090;-50
2023/02/27 14:07:01;;;;;;;4.22;2.92;;;;;;;;;;5125744;28;20482;-47
2023/02/27 14:09:34;;;;;;;3.58;2.33;;;;;;;;;;5125614;28;20143;-49
2023/02/27 14:12:02;;;;;;;2.58;1.83;;;;;;;;;;5103960;28;20036;-49
2023/02/27 14:14:40;;;;;;;6.47;3.17;;;;;;;;;;5106953;28;20410;-48
2023/02/27 14:17:07;;;;;;;9.02;4.30;;;;;;;;;;5125977;27;21291;-49
2023/02/27 14:19:42;;;;;;;11.27;4.80;;;;;;;;;;5129423;27;20072;-53
2023/02/27 14:22:11;;;;;;;9.30;4.22;;;;;;;;;;5129307;27;20034;-48
2023/02/27 14:24:40;;;;;;;12.30;4.90;;;;;;;;;;5128783;27;20023;-50
2023/02/27 14:27:15;;;;;;;11.02;4.97;;;;;;;;;;5130315;27;20034;-48
2023/02/27 14:29:47;;;;;;;7.90;4.63;;;;;;;;;;5126264;27;20031;-48
2023/02/27 14:32:23;;;;;;;6.60;3.70;;;;;;;;;;5130773;27;20031;-46
2023/02/27 14:34:50;;;;;;;4.25;2.58;;;;;;;;;;5130427;27;20085;-47
2023/02/27 14:37:21;;;;;;;3.97;2.35;;;;;;;;;;5129795;27;20038;-46
2023/02/27 14:39:49;;;;;;;4.15;2.17;;;;;;;;;;5123195;27;20398;-49
2023/02/27 14:42:34;;;;;;;3.47;1.70;;;;;;;;;;5131431;27;20027;-49
2023/02/27 14:45:00;;;;;;;2.33;1.80;;;;;;;;;;5130894;27;20028;-46
2023/02/27 14:47:30;;;;;;;4.22;1.80;;;;;;;;;;5129739;27;20011;-49
2023/02/27 14:49:57;;;;;;;3.28;1.45;;;;;;;;;;5128760;27;20155;-48
2023/02/27 14:52:24;;;;;;;1.38;1.10;;;;;;;;;;5116313;27;20031;-50
2023/02/27 14:54:51;;;;;;;2.15;1.50;;;;;;;;;;5129918;27;20498;-50
2023/02/27 14:57:25;;;;;;;4.10;1.70;;;;;;;;;;5130394;27;20034;-48
2023/02/27 14:59:52;;;;;;;4.18;2.67;;;;;;;;;;5127887;27;20396;-48
2023/02/27 15:02:21;;;;;;;2.72;1.58;;;;;;;;;;5125383;27;20703;-46
2023/02/27 15:04:48;;;;;;;1.55;1.27;;;;;;;;;;5129862;27;20110;-48
2023/02/27 15:07:23;;;;;;;1.83;1.30;;;;;;;;;;5130521;27;20035;-47
2023/02/27 15:09:49;;;;;;;2.20;1.60;;;;;;;;;;5129635;27;20027;-48
2023/02/27 15:12:20;;;;;;;2.25;1.70;;;;;;;;;;5128365;27;20050;-49
2023/02/27 15:14:51;;;;;;;1.50;1.40;;;;;;;;;;5142340;27;20517;-46
2023/02/27 15:17:18;;;;;;;2.13;1.65;;;;;;;;;;5147357;27;20010;-46
2023/02/27 15:20:08;;;;;;;2.10;1.50;;;;;;;;;;5129882;27;20031;-46
2023/02/27 15:22:37;;;;;;;1.73;1.50;;;;;;;;;;5127558;27;20026;-47
2023/02/27 15:25:05;;;;;;;3.47;1.98;;;;;;;;;;5129261;27;20943;-51
2023/02/27 15:27:32;;;;;;;2.70;2.00;;;;;;;;;;5128113;27;20403;-45
2023/02/27 15:29:59;;;;;;;3.08;2.20;;;;;;;;;;5129489;27;20056;-47
2023/02/27 15:32:41;;;;;;;5.32;3.10;;;;;;;;;;5129203;27;20031;-48
2023/02/27 15:35:13;;;;;;;3.45;2.53;;;;;;;;;;5129766;27;20474;-47
2023/02/27 15:37:50;;;;;;;4.47;2.67;;;;;;;;;;5127905;27;20661;-48
2023/02/27 15:40:19;;;;;;;2.88;2.25;;;;;;;;;;5129598;27;20023;-48
2023/02/27 15:42:45;;;;;;;3.40;2.40;;;;;;;;;;5129793;27;20054;-48
2023/02/27 15:45:18;;;;;;;2.78;2.00;;;;;;;;;;5129119;27;20042;-46
2023/02/27 15:47:44;;;;;;;2.90;1.90;;;;;;;;;;5127890;27;20015;-47
2023/02/27 15:50:30;;;;;;;2.35;1.90;;;;;;;;;;5129085;27;20023;-47
2023/02/27 15:53:04;;;;;;;2.92;2.00;;;;;;;;;;5124379;27;20406;-48
2023/02/27 15:55:33;;;;;;;3.47;1.80;;;;;;;;;;5124786;27;20395;-45
2023/02/27 15:57:59;;;;;;;1.95;1.63;;;;;;;;;;5129042;27;20433;-49
2023/02/27 16:00:27;;;;;;;2.17;1.55;;;;;;;;;;5112704;27;20027;-47
2023/02/27 16:02:55;;;;;;;1.58;1.40;;;;;;;;;;5109548;27;20490;-47
2023/02/27 16:05:22;;;;;;;1.83;1.50;;;;;;;;;;5122825;27;20026;-47
2023/02/27 16:07:49;;;;;;;1.75;1.33;;;;;;;;;;5126808;27;20076;-49
2023/02/27 16:10:20;;;;;;;1.23;0.98;;;;;;;;;;5132577;27;20557;-48
2023/02/27 16:12:47;;;;;;;2.33;1.40;;;;;;;;;;5130360;27;20027;-50
2023/02/27 16:15:22;;;;;;;1.30;1.20;;;;;;;;;;5131891;27;20607;-49
2023/02/27 16:17:54;;;;;;;1.20;1.10;;;;;;;;;;5116460;27;20027;-50
2023/02/27 16:20:47;;;;;;;2.35;1.45;;;;;;;;;;5106834;27;20093;-50
2023/02/27 16:23:13;;;;;;;1.65;1.23;;;;;;;;;;5115955;27;20043;-48
2023/02/27 16:25:40;;;;;;;1.75;1.23;;;;;;;;;;5117736;27;20024;-46
2023/02/27 16:28:11;;;;;;;1.55;1.30;;;;;;;;;;5127445;27;20055;-48
2023/02/27 16:30:38;;;;;;;1.83;1.45;;;;;;;;;;5124909;27;21095;-51
2023/02/27 16:33:04;;;;;;;2.00;1.65;;;;;;;;;;5127399;27;20023;-49
2023/02/27 16:35:30;;;;;;;1.52;1.42;;;;;;;;;;5125915;27;20016;-49
2023/02/27 16:38:01;;;;;;;1.50;1.27;;;;;;;;;;5127252;27;20105;-51
2023/02/27 16:40:28;;;;;;;1.63;1.52;;;;;;;;;;5127485;27;20138;-51
2023/02/27 16:42:54;;;;;;;1.50;1.20;;;;;;;;;;5118791;27;20068;-50
2023/02/27 16:45:21;;;;;;;2.08;1.67;;;;;;;;;;5127402;27;20387;-50
2023/02/27 16:47:48;;;;;;;2.90;1.73;;;;;;;;;;5123006;27;20027;-47
2023/02/27 16:50:24;;;;;;;2.95;1.70;;;;;;;;;;5107280;27;20047;-50
2023/02/27 16:52:50;;;;;;;2.72;1.70;;;;;;;;;;5126404;27;20019;-49
2023/02/27 16:55:16;;;;;;;2.22;1.70;;;;;;;;;;5126902;27;20023;-50
2023/02/27 16:57:42;;;;;;;1.60;1.50;;;;;;;;;;5125031;27;20098;-50
2023/02/27 17:00:12;;;;;;;2.42;1.80;;;;;;;;;;5125658;27;20492;-48
2023/02/27 17:02:38;;;;;;;2.72;1.70;;;;;;;;;;5126817;27;20030;-50
2023/02/27 17:05:05;;;;;;;2.92;1.95;;;;;;;;;;5126445;27;20517;-48
2023/02/27 17:07:31;;;;;;;3.92;1.83;;;;;;;;;;5126182;27;20102;-47
2023/02/27 17:09:59;;;;;;;2.17;1.90;;;;;;;;;;5126518;27;20079;-49
2023/02/27 17:12:25;;;;;;;2.33;1.42;;;;;;;;;;5126085;27;20473;-50
2023/02/27 17:14:51;;;;;;;2.17;1.60;;;;;;;;;;5126195;27;20088;-49
2023/02/27 17:17:18;;;;;;;2.92;2.00;;;;;;;;;;5126657;27;20027;-45
2023/02/27 17:19:45;;;;;;;3.70;2.30;;;;;;;;;;5126686;27;20031;-48
2023/02/27 17:22:12;;;;;;;3.10;2.40;;;;;;;;;;5126088;27;20030;-50
2023/02/27 17:24:38;;;;;;;2.50;2.10;;;;;;;;;;5125958;27;20641;-48
2023/02/27 17:27:04;;;;;;;1.85;1.50;;;;;;;;;;5110028;27;20019;-50
2023/02/27 17:29:31;;;;;;;2.40;1.88;;;;;;;;;;5123867;27;20034;-50
2023/02/27 17:31:58;;;;;;;2.60;1.88;;;;;;;;;;5126992;27;20103;-49
2023/02/27 17:34:25;;;;;;;2.70;1.98;;;;;;;;;;5125229;27;20417;-49
2023/02/27 17:36:52;;;;;;;4.13;2.53;;;;;;;;;;5114954;27;20031;-49
2023/02/27 17:39:18;;;;;;;4.47;2.92;;;;;;;;;;5107492;28;20171;-48
2023/02/27 17:41:44;;;;;;;6.45;3.40;;;;;;;;;;5123809;27;20019;-48
2023/02/27 17:44:11;;;;;;;5.63;3.63;;;;;;;;;;5127327;28;20020;-50
2023/02/27 17:46:38;;;;;;;5.65;3.53;;;;;;;;;;5126695;27;20024;-50
2023/02/27 17:49:04;;;;;;;4.18;2.78;;;;;;;;;;5124124;27;20066;-47
2023/02/27 17:51:31;;;;;;;5.63;2.97;;;;;;;;;;5130475;27;20452;-45
2023/02/27 17:54:03;;;;;;;3.50;2.88;;;;;;;;;;5131327;27;20031;-45
2023/02/27 17:56:29;;;;;;;5.50;2.60;;;;;;;;;;5130347;27;20034;-51
2023/02/27 17:58:55;;;;;;;4.10;3.00;;;;;;;;;;5127779;27;20099;-48
2023/02/27 18:01:24;;;;;;;4.40;2.80;;;;;;;;;;5111747;27;20549;-47
2023/02/27 18:03:50;;;;;;;2.45;2.20;;;;;;;;;;5121429;27;20027;-48
2023/02/27 18:06:17;;;;;;;3.35;2.28;;;;;;;;;;5128852;27;20393;-50
2023/02/27 18:08:45;;;;;;;2.30;2.00;;;;;;;;;;5127657;27;20042;-50
2023/02/27 18:11:12;;;;;;;4.07;2.40;;;;;;;;;;5129097;27;20027;-51
2023/02/27 18:13:39;;;;;;;5.55;2.58;;;;;;;;;;5137873;27;20068;-51
2023/02/27 18:16:05;;;;;;;3.20;2.38;;;;;;;;;;5128518;27;20031;-50
2023/02/27 18:18:34;;;;;;;5.63;3.08;;;;;;;;;;5146292;27;20019;-50
2023/02/27 18:21:04;;;;;;;4.15;2.47;;;;;;;;;;5149052;27;20019;-49
2023/02/27 18:23:31;;;;;;;2.92;2.20;;;;;;;;;;5136482;27;20416;-46
2023/02/27 18:25:58;;;;;;;5.60;2.75;;;;;;;;;;5128147;27;20391;-50
2023/02/27 18:28:25;;;;;;;4.43;2.53;;;;;;;;;;5101713;28;20028;-51
2023/02/27 18:30:51;;;;;;;3.83;2.20;;;;;;;;;;5119131;27;20033;-50
2023/02/27 18:33:18;;;;;;;3.53;2.70;;;;;;;;;;5128827;27;20110;-49
2023/02/27 18:35:44;;;;;;;2.67;2.13;;;;;;;;;;5121004;27;20490;-52
2023/02/27 18:38:10;;;;;;;2.78;1.80;;;;;;;;;;5117921;27;20035;-49
2023/02/27 18:40:36;;;;;;;2.80;1.90;;;;;;;;;;5118678;27;20019;-48
2023/02/27 18:43:02;;;;;;;2.55;2.05;;;;;;;;;;5117970;27;20042;-48
2023/02/27 18:45:29;;;;;;;3.50;1.90;;;;;;;;;;5125423;27;20027;-50
2023/02/27 18:47:56;;;;;;;2.65;2.00;;;;;;;;;;5127563;27;20074;-48
2023/02/27 18:50:24;;;;;;;2.53;1.90;;;;;;;;;;5119662;27;20034;-52
2023/02/27 18:52:51;;;;;;;2.05;1.60;;;;;;;;;;5109603;27;20027;-49
2023/02/27 18:55:17;;;;;;;3.47;2.17;;;;;;;;;;5118423;27;20016;-48
2023/02/27 18:57:44;;;;;;;3.50;2.10;;;;;;;;;;5122799;27;20509;-48
2023/02/27 19:00:10;;;;;;;2.83;2.03;;;;;;;;;;5119026;27;20028;-49
2023/02/27 19:02:39;;;;;;;3.40;2.30;;;;;;;;;;5114712;27;20394;-49
2023/02/27 19:05:06;;;;;;;2.08;1.70;;;;;;;;;;5111967;27;20379;-52
2023/02/27 19:07:32;;;;;;;1.98;1.70;;;;;;;;;;5114545;27;20406;-48
2023/02/27 19:09:57;;;;;;;2.30;1.80;;;;;;;;;;5113873;27;20071;-47
2023/02/27 19:12:24;;;;;;;2.10;1.60;;;;;;;;;;5122251;27;21189;-49
2023/02/27 19:14:51;;;;;;;2.28;1.63;;;;;;;;;;5105371;27;20130;-49
2023/02/27 19:17:17;;;;;;;3.08;2.03;;;;;;;;;;5097927;28;20028;-49
2023/02/27 19:19:44;;;;;;;2.78;2.00;;;;;;;;;;5105837;28;20075;-50
2023/02/27 19:22:10;;;;;;;2.92;2.13;;;;;;;;;;5105939;28;20542;-49
2023/02/27 19:24:36;;;;;;;3.33;2.60;;;;;;;;;;5104581;28;20061;-49
2023/02/27 19:27:02;;;;;;;3.25;2.20;;;;;;;;;;5105330;28;20019;-51
2023/02/27 19:29:28;;;;;;;3.50;2.47;;;;;;;;;;5104366;28;20077;-48
2023/02/27 19:31:54;;;;;;;3.80;2.55;;;;;;;;;;5106009;28;20437;-49
2023/02/27 19:34:21;;;;;;;3.33;2.00;;;;;;;;;;5104498;28;20046;-50
2023/02/27 19:36:47;;;;;;;3.00;2.33;;;;;;;;;;5104194;28;20089;-50
2023/02/27 19:39:13;;;;;;;3.63;2.10;;;;;;;;;;5106111;28;20031;-51
2023/02/27 19:41:39;;;;;;;4.47;1.70;;;;;;;;;;5104776;28;20402;-47
2023/02/27 19:44:06;;;;;;;4.18;2.50;;;;;;;;;;5105069;28;20384;-52
2023/02/27 19:46:33;;;;;;;3.85;2.15;;;;;;;;;;5104549;28;20038;-48
2023/02/27 19:49:01;;;;;;;2.50;1.80;;;;;;;;;;5104960;28;20047;-52
2023/02/27 19:51:27;;;;;;;2.60;1.63;;;;;;;;;;5106253;28;20059;-51
2023/02/27 19:53:53;;;;;;;2.85;2.00;;;;;;;;;;5105756;28;20043;-49
2023/02/27 19:56:20;;;;;;;2.60;2.10;;;;;;;;;;5105466;28;20028;-48
2023/02/27 19:58:47;;;;;;;3.70;2.03;;;;;;;;;;5105201;28;20042;-49